Terminal Aerodrome Forecast
Issued by NWS Boston, MA

Home | Current Version | Previous Version | Text Only | Print | Product List | Glossary Off
Versions: 1 2 3 4 5 6 7 8 9 10 11 12 13 14 15 16 17 18 19 20 21 22 23 24 25 26 27 28 29 30 31 32 33 34 35 36 37 38 39 40 41 42 43 44 45 46 47 48 49 50
000 FTUS41 KBOX 311124 TAFPVD TAF KPVD 311124Z 3112/0112 28009KT P6SM SCT250 FM311700 26008KT P6SM SCT040 BKN150 FM311900 26008KT P6SM BKN040 OVC120 FM010000 VRB03KT P6SM -SN OVC040 FM010100 16004KT P6SM OVC050 FM010200 05005KT P6SM OVC060 FM010700 36009KT P6SM BKN110=

USA.gov is the U.S. government's official web portal to all federal, state and local government web resources and services.